createdAt,value
2023-04-21T00:00:46.381Z,6.90
2023-04-21T00:01:48.740Z,6.90
2023-04-21T00:02:52.720Z,6.90
2023-04-21T00:03:56.399Z,6.90
2023-04-21T00:04:58.735Z,6.80
2023-04-21T00:06:01.591Z,6.80
2023-04-21T00:07:04.598Z,6.80
2023-04-21T00:08:06.821Z,6.80
2023-04-21T00:09:08.978Z,6.80
2023-04-21T00:10:11.983Z,6.80
2023-04-21T00:11:15.246Z,6.80
2023-04-21T00:12:17.437Z,6.80
2023-04-21T00:13:19.597Z,6.80
2023-04-21T00:14:21.771Z,6.80
2023-04-21T00:15:24.033Z,6.80
2023-04-21T00:16:26.153Z,6.70
2023-04-21T00:17:28.414Z,6.80
2023-04-21T00:18:32.074Z,6.80
2023-04-21T00:19:35.326Z,6.70
2023-04-21T00:20:37.531Z,6.70
2023-04-21T00:21:39.797Z,6.70
2023-04-21T00:22:41.979Z,6.70
2023-04-21T00:23:44.151Z,6.70
2023-04-21T00:24:46.304Z,6.70
2023-04-21T00:25:53.876Z,6.70
2023-04-21T00:26:56.018Z,6.70
2023-04-21T00:27:58.462Z,6.70
2023-04-21T00:29:00.787Z,6.70
2023-04-21T00:30:03.048Z,6.70
2023-04-21T00:31:05.402Z,6.70
2023-04-21T00:32:11.370Z,6.70
2023-04-21T00:33:13.624Z,6.70
2023-04-21T00:34:17.289Z,6.70
2023-04-21T00:35:21.031Z,6.70
2023-04-21T00:36:24.922Z,6.70
2023-04-21T00:37:27.283Z,6.70
2023-04-21T00:38:32.250Z,6.70
2023-04-21T00:39:34.653Z,6.70
2023-04-21T00:40:36.920Z,6.70
2023-04-21T00:41:40.182Z,6.70
2023-04-21T00:42:42.706Z,6.60
2023-04-21T00:44:03.429Z,6.70
2023-04-21T00:45:06.572Z,6.70
2023-04-21T00:46:08.729Z,6.60
2023-04-21T00:47:11.458Z,6.60
2023-04-21T00:48:15.533Z,6.60
2023-04-21T00:49:19.378Z,6.60
2023-04-21T00:50:21.752Z,6.60
2023-04-21T00:51:24.133Z,6.60
2023-04-21T00:52:27.213Z,6.60
2023-04-21T00:53:29.607Z,6.60
2023-04-21T00:54:32.664Z,6.60
2023-04-21T00:55:35.084Z,6.60
2023-04-21T00:56:37.295Z,6.60
2023-04-21T00:57:39.758Z,6.60
2023-04-21T00:58:43.065Z,6.60
2023-04-21T00:59:45.264Z,6.60
2023-04-21T01:00:56.616Z,6.60
2023-04-21T01:01:58.836Z,6.60
2023-04-21T01:03:02.073Z,6.50
2023-04-21T01:04:05.713Z,6.50
2023-04-21T01:05:10.732Z,6.50
2023-04-21T01:06:13.107Z,6.50
2023-04-21T01:07:16.556Z,6.50
2023-04-21T01:08:18.687Z,6.50
2023-04-21T01:09:23.127Z,6.50
2023-04-21T01:10:26.529Z,6.50
2023-04-21T01:11:28.919Z,6.50
2023-04-21T01:12:31.386Z,6.50
2023-04-21T01:13:33.920Z,6.50
2023-04-21T01:14:37.117Z,6.40
2023-04-21T01:15:39.422Z,6.50
2023-04-21T01:16:41.693Z,6.40
2023-04-21T01:17:45.586Z,6.50
2023-04-21T01:18:47.996Z,6.50
2023-04-21T01:19:56.566Z,6.40
2023-04-21T01:21:01.218Z,6.50
2023-04-21T01:22:06.708Z,6.40
2023-04-21T01:23:08.831Z,6.40
2023-04-21T01:24:11.986Z,6.40
2023-04-21T01:25:14.186Z,6.40
2023-04-21T01:26:18.881Z,6.40
2023-04-21T01:27:21.577Z,6.40
2023-04-21T01:28:24.564Z,6.40
2023-04-21T01:29:26.845Z,6.40
2023-04-21T01:30:29.109Z,6.40
2023-04-21T01:32:42.212Z,6.30
2023-04-21T01:33:45.271Z,6.30
2023-04-21T01:34:48.067Z,6.30
2023-04-21T01:35:50.376Z,6.20
2023-04-21T01:36:52.550Z,6.20
2023-04-21T01:37:56.189Z,6.20
2023-04-21T01:38:58.341Z,6.20
2023-04-21T01:40:05.186Z,6.20
2023-04-21T01:41:10.891Z,6.20
2023-04-21T01:42:13.544Z,6.30
2023-04-21T01:43:19.832Z,6.20
2023-04-21T01:44:22.469Z,6.20
2023-04-21T01:45:27.630Z,6.20
2023-04-21T01:46:34.423Z,6.20
2023-04-21T01:47:36.730Z,6.20
2023-04-21T01:48:39.519Z,6.20
2023-04-21T01:49:41.893Z,6.20
2023-04-21T01:50:44.171Z,6.10
2023-04-21T01:51:46.337Z,6.10
2023-04-21T01:52:48.477Z,6.10
2023-04-21T01:53:52.230Z,6.10
2023-04-21T01:54:56.621Z,6.10
2023-04-21T01:55:58.804Z,6.10
2023-04-21T01:57:01.996Z,6.10
2023-04-21T01:58:04.337Z,6.10
2023-04-21T01:59:06.508Z,6.00
2023-04-21T02:00:09.821Z,6.00
2023-04-21T02:01:12.120Z,6.00
2023-04-21T02:02:15.012Z,6.10
2023-04-21T02:03:19.256Z,6.00
2023-04-21T02:04:22.175Z,6.00
2023-04-21T02:05:28.255Z,6.00
2023-04-21T02:06:33.926Z,6.00
2023-04-21T02:07:36.175Z,6.00
2023-04-21T02:08:38.376Z,6.00
2023-04-21T02:09:42.690Z,6.00
2023-04-21T02:10:44.886Z,6.00
2023-04-21T02:11:47.577Z,6.00
2023-04-21T02:12:49.982Z,6.00
2023-04-21T02:13:52.931Z,6.00
2023-04-21T02:14:55.352Z,6.00
2023-04-21T02:16:06.176Z,6.00
2023-04-21T02:17:36.859Z,6.00
2023-04-21T02:18:40.075Z,6.00
2023-04-21T02:19:47.905Z,6.00
2023-04-21T02:20:50.278Z,6.00
2023-04-21T02:22:08.804Z,6.00
2023-04-21T02:23:14.122Z,6.00
2023-04-21T02:24:19.255Z,6.00
2023-04-21T02:25:26.153Z,6.00
2023-04-21T02:26:28.935Z,6.00
2023-04-21T02:27:31.206Z,6.00
2023-04-21T02:28:33.496Z,6.10
2023-04-21T02:29:35.806Z,6.10
2023-04-21T02:30:38.098Z,6.10
2023-04-21T02:31:54.156Z,6.10
2023-04-21T02:33:01.031Z,6.10
2023-04-21T02:34:03.740Z,6.00
2023-04-21T02:35:06.991Z,6.00
2023-04-21T02:36:09.325Z,6.00
2023-04-21T02:37:11.540Z,6.00
2023-04-21T02:38:13.750Z,6.00
2023-04-21T02:39:18.733Z,6.00
2023-04-21T02:40:36.648Z,6.00
2023-04-21T02:41:41.666Z,6.00
2023-04-21T02:42:44.436Z,6.00
2023-04-21T02:43:46.943Z,6.00
2023-04-21T02:44:49.376Z,6.00
2023-04-21T02:45:51.810Z,6.00
2023-04-21T02:46:57.150Z,6.00
2023-04-21T02:48:02.773Z,6.00
2023-04-21T02:49:05.259Z,6.00
2023-04-21T02:50:07.944Z,6.00
2023-04-21T02:51:15.774Z,6.00
2023-04-21T02:52:18.224Z,5.90
2023-04-21T02:53:20.709Z,5.90
2023-04-21T02:54:24.953Z,5.90
2023-04-21T02:55:28.957Z,5.90
2023-04-21T02:56:39.932Z,5.90
2023-04-21T02:57:45.191Z,5.90
2023-04-21T02:58:49.997Z,5.90
2023-04-21T02:59:54.176Z,5.90
2023-04-21T03:00:59.804Z,5.90
2023-04-21T03:02:02.823Z,5.90
2023-04-21T03:03:05.655Z,5.80
2023-04-21T03:04:09.564Z,5.90
2023-04-21T03:05:13.208Z,5.90
2023-04-21T03:06:15.516Z,5.90
2023-04-21T03:07:23.609Z,5.90
2023-04-21T03:08:26.043Z,5.90
2023-04-21T03:09:33.889Z,5.90
2023-04-21T03:10:39.251Z,5.90
2023-04-21T03:11:42.662Z,5.90
2023-04-21T03:12:45.252Z,5.90
2023-04-21T03:13:48.281Z,5.90
2023-04-21T03:14:50.820Z,5.90
2023-04-21T03:15:53.757Z,5.90
2023-04-21T03:16:59.837Z,5.90
2023-04-21T03:18:07.576Z,5.90
2023-04-21T03:19:09.932Z,5.90
2023-04-21T03:20:13.339Z,5.90
2023-04-21T03:21:18.556Z,5.90
2023-04-21T03:22:22.405Z,5.90
2023-04-21T03:23:30.018Z,5.90
2023-04-21T03:24:32.819Z,5.90
2023-04-21T03:25:35.015Z,5.90
2023-04-21T03:26:50.004Z,5.90
2023-04-21T03:27:52.118Z,5.90
2023-04-21T03:28:54.209Z,5.90
2023-04-21T03:29:56.310Z,5.90
2023-04-21T03:30:58.502Z,5.90
2023-04-21T03:32:06.527Z,5.90
2023-04-21T03:33:10.799Z,5.90
2023-04-21T03:34:13.153Z,5.90
2023-04-21T03:35:15.549Z,5.90
2023-04-21T03:36:18.507Z,5.90
2023-04-21T03:37:20.827Z,5.90
2023-04-21T03:38:23.192Z,5.90
2023-04-21T03:39:27.484Z,5.90
2023-04-21T03:40:32.117Z,5.90
2023-04-21T03:41:34.407Z,5.90
2023-04-21T03:42:39.454Z,6.00
2023-04-21T03:43:44.694Z,5.90
2023-04-21T03:44:47.348Z,6.00
2023-04-21T03:45:51.980Z,6.00
2023-04-21T03:46:56.164Z,6.00
2023-04-21T03:48:00.504Z,6.00
2023-04-21T03:49:03.864Z,6.00
2023-04-21T03:50:10.508Z,6.00
2023-04-21T03:51:13.488Z,6.10
2023-04-21T03:52:16.061Z,6.10
2023-04-21T03:53:20.716Z,6.10
2023-04-21T03:54:22.958Z,6.10
2023-04-21T03:55:27.899Z,6.10
2023-04-21T03:56:31.128Z,6.10
2023-04-21T03:57:33.966Z,6.10
2023-04-21T03:58:37.750Z,6.10
2023-04-21T03:59:42.861Z,6.20
2023-04-21T04:00:45.309Z,6.20
2023-04-21T04:01:47.531Z,6.20
2023-04-21T04:02:49.906Z,6.20
2023-04-21T04:03:52.413Z,6.20
2023-04-21T04:04:54.849Z,6.30
2023-04-21T04:05:57.308Z,6.30
2023-04-21T04:06:59.796Z,6.30
2023-04-21T04:08:02.047Z,6.30
2023-04-21T04:09:04.709Z,6.30
2023-04-21T04:10:07.161Z,6.40
2023-04-21T04:11:09.295Z,6.40
2023-04-21T04:12:11.903Z,6.40
2023-04-21T04:13:14.386Z,6.40
2023-04-21T04:14:17.919Z,6.40
2023-04-21T04:15:20.270Z,6.40
2023-04-21T04:16:22.571Z,6.50
2023-04-21T04:17:25.803Z,6.50
2023-04-21T04:18:28.207Z,6.50
2023-04-21T04:19:31.773Z,6.50
2023-04-21T04:20:33.954Z,6.60
2023-04-21T04:21:36.458Z,6.50
2023-04-21T04:22:39.042Z,6.60
2023-04-21T04:23:41.229Z,6.60
2023-04-21T04:24:45.168Z,6.60
2023-04-21T04:25:47.990Z,6.70
2023-04-21T04:26:50.233Z,6.70
2023-04-21T04:27:52.314Z,6.70
2023-04-21T04:28:56.413Z,6.80
2023-04-21T04:30:00.208Z,6.80
2023-04-21T04:31:03.251Z,6.80
2023-04-21T04:32:06.727Z,6.80
2023-04-21T04:33:12.065Z,6.90
2023-04-21T04:34:15.711Z,6.90
2023-04-21T04:35:18.009Z,6.90
2023-04-21T04:36:20.264Z,7.00
2023-04-21T04:37:22.520Z,7.00
2023-04-21T04:38:24.701Z,7.00
2023-04-21T04:39:26.791Z,7.10
2023-04-21T04:40:30.338Z,7.10
2023-04-21T04:41:33.986Z,7.10
2023-04-21T04:42:37.374Z,7.20
2023-04-21T04:43:39.507Z,7.20
2023-04-21T04:44:41.733Z,7.20
2023-04-21T04:45:45.507Z,7.30
2023-04-21T04:46:47.784Z,7.30
2023-04-21T04:47:50.257Z,7.30
2023-04-21T04:48:53.235Z,7.30
2023-04-21T04:49:55.725Z,7.40
2023-04-21T04:50:57.997Z,7.40
2023-04-21T04:52:03.029Z,7.40
2023-04-21T04:53:05.292Z,7.40
2023-04-21T04:54:07.471Z,7.50
2023-04-21T04:55:10.999Z,7.50
2023-04-21T04:56:13.264Z,7.60
2023-04-21T04:57:16.368Z,7.60
2023-04-21T04:58:18.764Z,7.60
2023-04-21T04:59:21.045Z,7.70
2023-04-21T05:00:23.385Z,7.70
2023-04-21T05:01:30.914Z,7.70
2023-04-21T05:02:33.523Z,7.80
2023-04-21T05:03:35.929Z,7.80
2023-04-21T05:04:39.238Z,7.80
2023-04-21T05:05:41.483Z,7.90
2023-04-21T05:06:43.696Z,7.90
2023-04-21T05:07:46.001Z,8.00
2023-04-21T05:08:48.305Z,8.00
2023-04-21T05:09:50.444Z,8.10
2023-04-21T05:10:52.536Z,8.10
2023-04-21T05:11:54.640Z,8.10
2023-04-21T05:12:56.910Z,8.20
2023-04-21T05:13:59.152Z,8.10
2023-04-21T05:15:01.521Z,8.20
2023-04-21T05:16:03.821Z,8.20
2023-04-21T05:17:07.560Z,8.20
2023-04-21T05:18:09.793Z,8.20
2023-04-21T05:19:12.087Z,8.20
2023-04-21T05:20:14.314Z,8.20
2023-04-21T05:21:24.026Z,8.20
2023-04-21T05:22:26.456Z,8.30
2023-04-21T05:23:28.744Z,8.30
2023-04-21T05:24:30.989Z,8.40
2023-04-21T05:25:33.181Z,8.40
2023-04-21T05:26:35.411Z,8.50
2023-04-21T05:27:37.592Z,8.50
2023-04-21T05:28:39.836Z,8.50
2023-04-21T05:29:42.080Z,8.50
2023-04-21T05:30:44.201Z,8.60
2023-04-21T05:31:46.373Z,8.60
2023-04-21T05:32:49.923Z,8.60
2023-04-21T05:33:52.238Z,8.70
2023-04-21T05:34:54.417Z,8.70
2023-04-21T05:35:56.524Z,8.80
2023-04-21T05:36:58.711Z,8.80
2023-04-21T05:38:00.875Z,8.80
2023-04-21T05:39:06.434Z,8.80
2023-04-21T05:40:09.211Z,8.90
2023-04-21T05:41:13.139Z,9.00
2023-04-21T05:42:15.409Z,9.00
2023-04-21T05:43:18.078Z,9.00
2023-04-21T05:44:20.412Z,9.10
2023-04-21T05:45:22.943Z,9.10
2023-04-21T05:46:25.180Z,9.10
2023-04-21T05:47:27.418Z,9.20
2023-04-21T05:48:30.939Z,9.20
2023-04-21T05:49:33.556Z,9.30
2023-04-21T05:50:36.200Z,9.30
2023-04-21T05:51:38.405Z,9.40
2023-04-21T05:52:40.675Z,9.40
2023-04-21T05:53:44.188Z,9.40
2023-04-21T05:54:46.412Z,9.50
2023-04-21T05:55:48.683Z,9.50
2023-04-21T05:56:50.841Z,9.50
2023-04-21T05:57:53.022Z,9.60
2023-04-21T05:58:55.155Z,9.60
2023-04-21T05:59:57.368Z,9.70
2023-04-21T06:00:59.637Z,9.70
2023-04-21T06:02:02.534Z,9.80
2023-04-21T06:03:04.970Z,9.80
2023-04-21T06:04:08.862Z,9.80
2023-04-21T06:05:11.465Z,9.80
2023-04-21T06:06:15.196Z,9.80
2023-04-21T06:07:18.905Z,9.90
2023-04-21T06:08:21.236Z,9.90
2023-04-21T06:09:23.453Z,10.00
2023-04-21T06:10:26.059Z,10.00
2023-04-21T06:11:28.296Z,10.10
2023-04-21T06:12:30.601Z,10.20
2023-04-21T06:13:32.722Z,10.20
2023-04-21T06:14:35.152Z,10.30
2023-04-21T06:15:37.342Z,10.40
2023-04-21T06:16:39.646Z,10.40
2023-04-21T06:17:41.897Z,10.40
2023-04-21T06:18:47.480Z,10.50
2023-04-21T06:19:53.356Z,10.40
2023-04-21T06:20:56.072Z,10.40
2023-04-21T06:21:58.218Z,10.40
2023-04-21T06:23:00.426Z,10.50
2023-04-21T06:24:02.625Z,10.50
2023-04-21T06:25:05.712Z,10.50
2023-04-21T06:26:08.230Z,10.50
2023-04-21T06:27:12.144Z,10.60
2023-04-21T06:28:18.292Z,10.70
2023-04-21T06:29:21.107Z,10.70
2023-04-21T06:30:23.562Z,10.80
2023-04-21T06:31:27.223Z,10.80
2023-04-21T06:32:29.644Z,10.80
2023-04-21T06:33:31.967Z,10.80
2023-04-21T06:34:37.340Z,10.80
2023-04-21T06:35:40.894Z,10.90
2023-04-21T06:36:43.116Z,10.90
2023-04-21T06:37:45.258Z,10.90
2023-04-21T06:38:47.541Z,10.90
2023-04-21T06:39:49.674Z,11.00
2023-04-21T06:40:52.170Z,11.00
2023-04-21T06:41:55.421Z,11.00
2023-04-21T06:42:57.611Z,11.00
2023-04-21T06:43:59.713Z,11.00
2023-04-21T06:45:02.722Z,11.10
2023-04-21T06:46:04.957Z,11.10
2023-04-21T06:47:07.114Z,11.10
2023-04-21T06:48:09.351Z,11.20
2023-04-21T06:49:11.965Z,11.20
2023-04-21T06:50:14.120Z,11.30
2023-04-21T06:51:17.636Z,11.30
2023-04-21T06:52:20.293Z,11.30
2023-04-21T06:53:22.496Z,11.40
2023-04-21T06:54:24.863Z,11.40
2023-04-21T06:55:27.155Z,11.40
2023-04-21T06:56:29.684Z,11.40
2023-04-21T06:57:31.819Z,11.40
2023-04-21T06:58:33.974Z,11.50
2023-04-21T06:59:36.437Z,11.50
2023-04-21T07:00:38.861Z,11.50
2023-04-21T07:01:41.002Z,11.50
2023-04-21T07:02:43.798Z,11.50
2023-04-21T07:03:46.724Z,11.50
2023-04-21T07:04:49.033Z,11.50
2023-04-21T07:05:51.395Z,11.50
2023-04-21T07:06:54.892Z,11.50
2023-04-21T07:07:59.901Z,11.50
2023-04-21T07:09:02.085Z,11.60
2023-04-21T07:10:04.618Z,11.60
2023-04-21T07:11:06.848Z,11.50
2023-04-21T07:12:09.049Z,11.50
2023-04-21T07:13:11.406Z,11.60
2023-04-21T07:14:13.721Z,11.60
2023-04-21T07:15:16.160Z,11.70
2023-04-21T07:16:18.309Z,11.70
2023-04-21T07:17:20.583Z,11.70
2023-04-21T07:18:22.733Z,11.80
2023-04-21T07:19:24.837Z,11.80
2023-04-21T07:20:27.256Z,11.80
2023-04-21T07:21:31.987Z,11.80
2023-04-21T07:22:36.725Z,11.80
2023-04-21T07:23:38.875Z,11.80
2023-04-21T07:24:43.918Z,11.80
2023-04-21T07:25:46.112Z,11.80
2023-04-21T07:26:48.269Z,11.80
2023-04-21T07:27:50.610Z,11.80
2023-04-21T07:28:52.974Z,11.80
2023-04-21T07:29:55.087Z,11.80
2023-04-21T07:30:57.311Z,11.80
2023-04-21T07:31:59.541Z,11.80
2023-04-21T07:33:02.614Z,11.80
2023-04-21T07:34:04.988Z,11.90
2023-04-21T07:35:07.964Z,11.90
2023-04-21T07:36:10.722Z,11.90
2023-04-21T07:37:12.821Z,11.90
2023-04-21T07:38:16.703Z,11.90
2023-04-21T07:39:19.252Z,11.80
2023-04-21T07:40:21.670Z,11.80
2023-04-21T07:41:23.888Z,11.80
2023-04-21T07:42:26.987Z,11.80
2023-04-21T07:43:31.093Z,11.90
2023-04-21T07:44:33.175Z,11.90
2023-04-21T07:45:35.414Z,11.80
2023-04-21T07:46:37.539Z,11.80
2023-04-21T07:47:39.807Z,11.80
2023-04-21T07:48:41.947Z,11.80
2023-04-21T07:49:44.094Z,11.80
2023-04-21T07:50:46.223Z,11.80
2023-04-21T07:51:48.321Z,11.90
2023-04-21T07:52:50.589Z,11.90
2023-04-21T07:53:54.414Z,11.90
2023-04-21T07:54:56.723Z,12.00
2023-04-21T07:55:58.874Z,12.00
2023-04-21T07:57:02.654Z,12.10
2023-04-21T07:58:05.007Z,12.10
2023-04-21T07:59:07.231Z,12.10
2023-04-21T08:00:10.849Z,12.10
2023-04-21T08:01:13.126Z,12.10
2023-04-21T08:02:15.373Z,12.10
2023-04-21T08:03:17.718Z,12.10
2023-04-21T08:04:20.243Z,12.20
2023-04-21T08:05:22.759Z,12.20
2023-04-21T08:06:25.140Z,12.20
2023-04-21T08:07:27.356Z,12.20
2023-04-21T08:08:31.496Z,12.20
2023-04-21T08:09:35.999Z,12.10
2023-04-21T08:10:38.265Z,12.10
2023-04-21T08:11:40.617Z,12.10
2023-04-21T08:12:42.684Z,12.10
2023-04-21T08:13:44.825Z,12.10
2023-04-21T08:14:46.942Z,12.10
2023-04-21T08:15:49.264Z,12.10
2023-04-21T08:16:51.600Z,12.10
2023-04-21T08:17:55.013Z,12.10
2023-04-21T08:18:57.206Z,12.10
2023-04-21T08:20:02.414Z,12.10
2023-04-21T08:21:05.004Z,12.10
2023-04-21T08:22:07.209Z,12.10
2023-04-21T08:23:09.417Z,12.10
2023-04-21T08:24:12.383Z,12.10
2023-04-21T08:25:16.072Z,12.10
2023-04-21T08:26:21.028Z,12.10
2023-04-21T08:27:23.223Z,12.10
2023-04-21T08:28:25.483Z,12.10
2023-04-21T08:29:27.766Z,12.10
2023-04-21T08:30:30.227Z,12.20
2023-04-21T08:31:33.997Z,12.30
2023-04-21T08:32:36.323Z,12.30
2023-04-21T08:33:46.753Z,12.30
2023-04-21T08:34:56.533Z,12.30
2023-04-21T08:36:05.421Z,12.30
2023-04-21T08:37:10.024Z,12.40
2023-04-21T08:38:12.290Z,12.30
2023-04-21T08:39:16.351Z,12.20
2023-04-21T08:40:20.366Z,12.20
2023-04-21T08:41:24.555Z,12.30
2023-04-21T08:42:26.681Z,12.40
2023-04-21T08:43:29.525Z,12.40
2023-04-21T08:44:33.208Z,12.50
2023-04-21T08:45:36.027Z,12.50
2023-04-21T08:46:39.045Z,12.50
2023-04-21T08:47:41.861Z,12.60
2023-04-21T08:48:46.714Z,12.60
2023-04-21T08:49:51.651Z,12.60
2023-04-21T08:50:54.103Z,12.60
2023-04-21T08:51:56.282Z,12.60
2023-04-21T08:52:59.000Z,12.70
2023-04-21T08:54:04.039Z,12.70
2023-04-21T08:55:07.729Z,12.70
2023-04-21T08:56:11.980Z,12.70
2023-04-21T08:57:15.822Z,12.70
2023-04-21T08:58:18.561Z,12.70
2023-04-21T08:59:21.467Z,12.70
2023-04-21T09:00:24.046Z,12.70
2023-04-21T09:01:26.576Z,12.70
2023-04-21T09:02:30.899Z,12.60
2023-04-21T09:03:36.105Z,12.60
2023-04-21T09:04:55.844Z,12.60
2023-04-21T09:05:59.278Z,12.50
2023-04-21T09:07:01.756Z,12.50
2023-04-21T09:08:11.685Z,12.50
2023-04-21T09:09:13.869Z,12.60
2023-04-21T09:10:22.032Z,12.50
2023-04-21T09:11:25.753Z,12.50
2023-04-21T09:12:29.315Z,12.60
2023-04-21T09:13:32.910Z,12.60
2023-04-21T09:14:35.639Z,12.70
2023-04-21T09:15:41.020Z,12.70
2023-04-21T09:16:43.962Z,12.70
2023-04-21T09:17:46.590Z,12.70
2023-04-21T09:18:49.756Z,12.70
2023-04-21T09:19:52.422Z,12.80
2023-04-21T09:21:06.770Z,12.80
2023-04-21T09:22:08.935Z,12.80
2023-04-21T09:23:11.839Z,12.70
2023-04-21T09:24:14.012Z,12.70
2023-04-21T09:25:17.849Z,12.70
2023-04-21T09:26:24.265Z,12.70
2023-04-21T09:27:28.913Z,12.70
2023-04-21T09:28:34.242Z,12.70
2023-04-21T09:29:36.401Z,12.80
2023-04-21T09:30:39.271Z,12.80
2023-04-21T09:31:44.418Z,12.80
2023-04-21T09:32:46.823Z,12.90
2023-04-21T09:33:58.591Z,12.90
2023-04-21T09:35:02.816Z,13.00
2023-04-21T09:36:06.103Z,13.00
2023-04-21T09:37:10.985Z,13.10
2023-04-21T09:38:13.409Z,13.10
2023-04-21T09:39:29.101Z,13.10
2023-04-21T09:40:37.926Z,13.10
2023-04-21T09:41:40.378Z,13.10
2023-04-21T09:42:44.933Z,13.00
2023-04-21T09:43:47.858Z,13.00
2023-04-21T09:44:55.367Z,13.00
2023-04-21T09:46:09.223Z,13.00
2023-04-21T09:47:14.725Z,13.00
2023-04-21T09:48:20.612Z,13.00
2023-04-21T09:49:25.992Z,13.00
2023-04-21T09:51:11.383Z,13.00
2023-04-21T09:52:17.500Z,13.00
2023-04-21T09:53:24.570Z,13.10
2023-04-21T09:54:31.714Z,13.10
2023-04-21T09:55:35.360Z,13.10
2023-04-21T09:56:42.113Z,13.10
2023-04-21T09:57:48.673Z,13.10
2023-04-21T09:58:54.331Z,13.10
2023-04-21T10:00:01.331Z,13.20
2023-04-21T10:01:05.028Z,13.20
2023-04-21T10:02:13.069Z,13.20
2023-04-21T10:03:18.318Z,13.10
2023-04-21T10:04:22.903Z,13.20
2023-04-21T10:05:26.101Z,13.20
2023-04-21T10:06:29.081Z,13.30
2023-04-21T10:07:31.358Z,13.30
2023-04-21T10:08:34.675Z,13.40
2023-04-21T10:09:43.256Z,13.50
2023-04-21T10:10:46.706Z,13.50
2023-04-21T10:11:49.097Z,13.40
2023-04-21T10:12:55.497Z,13.40
2023-04-21T10:13:57.765Z,13.40
2023-04-21T10:15:04.393Z,13.50
2023-04-21T10:16:10.002Z,13.50
2023-04-21T10:17:12.300Z,13.50
2023-04-21T10:18:18.734Z,13.60
2023-04-21T10:19:25.711Z,13.60
2023-04-21T10:20:29.682Z,13.70
2023-04-21T10:21:36.978Z,13.70
2023-04-21T10:22:39.999Z,13.70
2023-04-21T10:23:43.629Z,13.70
2023-04-21T10:24:47.348Z,13.70
2023-04-21T10:25:49.564Z,13.60
2023-04-21T10:26:54.582Z,13.60
2023-04-21T10:27:58.926Z,13.70
2023-04-21T10:29:02.599Z,13.70
2023-04-21T10:30:20.126Z,13.70
2023-04-21T10:31:31.926Z,13.70
2023-04-21T10:32:41.817Z,13.70
2023-04-21T10:34:20.663Z,13.70
2023-04-21T10:35:24.466Z,13.70
2023-04-21T10:36:28.000Z,13.70
2023-04-21T10:37:31.878Z,13.70
2023-04-21T10:38:35.023Z,13.80
2023-04-21T10:39:52.428Z,13.80
2023-04-21T10:40:54.560Z,13.90
2023-04-21T10:41:58.498Z,13.90
2023-04-21T10:43:03.346Z,14.00
2023-04-21T10:44:24.349Z,14.00
2023-04-21T10:45:26.646Z,14.10
2023-04-21T10:46:33.416Z,14.10
2023-04-21T10:47:44.575Z,14.30
2023-04-21T10:48:52.960Z,14.50
2023-04-21T10:49:57.766Z,14.60
2023-04-21T10:51:00.322Z,15.00
2023-04-21T10:52:07.306Z,15.90
2023-04-21T10:53:11.121Z,17.10
2023-04-21T10:54:14.747Z,18.10
2023-04-21T10:55:17.215Z,18.80
2023-04-21T10:56:20.912Z,19.50
2023-04-21T10:57:23.125Z,20.00
2023-04-21T10:58:26.867Z,20.60
2023-04-21T10:59:29.042Z,20.90
2023-04-21T11:00:31.875Z,20.90
2023-04-21T11:01:34.104Z,20.90
2023-04-21T11:02:39.816Z,21.10
2023-04-21T11:03:44.223Z,21.40
2023-04-21T11:04:51.575Z,21.90
2023-04-21T11:05:54.025Z,22.10
2023-04-21T11:07:08.176Z,22.20
2023-04-21T11:08:13.010Z,22.40
2023-04-21T11:09:16.621Z,22.40
2023-04-21T11:10:18.880Z,22.50
2023-04-21T11:11:24.117Z,22.70
2023-04-21T11:12:31.244Z,23.00
2023-04-21T11:13:35.110Z,23.10
2023-04-21T11:14:40.485Z,22.90
2023-04-21T11:15:42.648Z,22.80
2023-04-21T11:16:45.015Z,22.70
2023-04-21T11:17:48.082Z,22.60
2023-04-21T11:18:51.215Z,22.50
2023-04-21T11:19:54.789Z,22.60
2023-04-21T11:21:10.512Z,23.20
2023-04-21T11:22:12.934Z,23.20
2023-04-21T11:23:18.875Z,23.10
2023-04-21T11:24:21.961Z,23.30
2023-04-21T11:25:24.457Z,23.30
2023-04-21T11:26:33.825Z,23.20
2023-04-21T11:27:36.035Z,23.50
2023-04-21T11:28:41.533Z,23.30
2023-04-21T11:29:45.799Z,23.50
2023-04-21T11:30:48.349Z,23.80
2023-04-21T11:31:51.374Z,23.90
2023-04-21T11:32:55.014Z,23.90
2023-04-21T11:33:58.627Z,23.90
2023-04-21T11:35:00.762Z,23.80
2023-04-21T11:36:05.771Z,23.60
2023-04-21T11:37:08.453Z,23.70
2023-04-21T11:38:12.897Z,23.90
2023-04-21T11:39:17.265Z,24.20
2023-04-21T11:40:20.639Z,24.60
2023-04-21T11:41:23.627Z,24.70
2023-04-21T11:42:26.007Z,24.70
2023-04-21T11:43:28.233Z,24.70
2023-04-21T11:44:33.934Z,24.70
2023-04-21T11:45:36.648Z,24.90
2023-04-21T11:46:45.228Z,24.50
2023-04-21T11:47:48.594Z,24.20
2023-04-21T11:48:59.246Z,24.10
2023-04-21T11:50:02.314Z,24.00
2023-04-21T11:51:05.325Z,23.60
2023-04-21T11:52:07.701Z,23.70
2023-04-21T11:53:09.994Z,23.80
2023-04-21T11:54:13.859Z,23.80
2023-04-21T11:55:18.791Z,23.90
2023-04-21T11:56:25.059Z,24.10
2023-04-21T11:57:28.434Z,24.10
2023-04-21T11:58:31.431Z,24.20
2023-04-21T11:59:34.968Z,24.20
2023-04-21T12:00:37.172Z,24.10
2023-04-21T12:01:46.516Z,24.20
2023-04-21T12:02:55.833Z,24.50
2023-04-21T12:03:58.264Z,24.80
2023-04-21T12:05:03.137Z,25.00
2023-04-21T12:06:06.747Z,25.40
2023-04-21T12:07:08.900Z,25.90
2023-04-21T12:08:15.262Z,25.90
2023-04-21T12:09:20.034Z,25.80
2023-04-21T12:10:23.265Z,25.90
2023-04-21T12:11:28.043Z,25.80
2023-04-21T12:12:30.615Z,25.30
2023-04-21T12:13:36.438Z,24.70
2023-04-21T12:14:43.664Z,23.80
2023-04-21T12:15:46.214Z,23.10
2023-04-21T12:16:51.648Z,22.50
2023-04-21T12:17:56.620Z,22.10
2023-04-21T12:19:04.415Z,21.60
2023-04-21T12:20:08.380Z,21.30
2023-04-21T12:21:14.555Z,21.20
2023-04-21T12:22:23.117Z,20.90
2023-04-21T12:23:28.427Z,20.60
2023-04-21T12:24:30.722Z,20.20
2023-04-21T12:25:33.178Z,20.10
2023-04-21T12:26:35.504Z,19.90
2023-04-21T12:27:37.918Z,19.80
2023-04-21T12:28:40.217Z,19.70
2023-04-21T12:29:44.071Z,19.80
2023-04-21T12:30:48.353Z,19.90
2023-04-21T12:31:52.076Z,20.10
2023-04-21T12:32:55.878Z,20.20
2023-04-21T12:33:58.311Z,20.30
2023-04-21T12:35:01.854Z,20.40
2023-04-21T12:36:04.867Z,20.60
2023-04-21T12:37:07.722Z,20.50
2023-04-21T12:38:12.088Z,20.50
2023-04-21T12:39:17.436Z,20.30
2023-04-21T12:40:22.681Z,20.30
2023-04-21T12:41:25.038Z,20.40
2023-04-21T12:42:27.305Z,20.90
2023-04-21T12:43:30.767Z,21.50
2023-04-21T12:44:33.082Z,22.60
2023-04-21T12:45:36.894Z,23.40
2023-04-21T12:46:39.727Z,24.00
2023-04-21T12:47:45.554Z,24.60
2023-04-21T12:48:49.698Z,25.30
2023-04-21T12:49:52.997Z,25.80
2023-04-21T12:50:55.418Z,26.20
2023-04-21T12:51:58.026Z,26.30
2023-04-21T12:53:00.613Z,26.20
2023-04-21T12:54:03.564Z,26.00
2023-04-21T12:55:06.541Z,25.90
2023-04-21T12:56:13.452Z,25.50
2023-04-21T12:57:18.276Z,25.30
2023-04-21T12:58:20.905Z,25.30
2023-04-21T12:59:26.039Z,25.40
2023-04-21T13:00:30.460Z,25.30
2023-04-21T13:01:34.961Z,25.30
2023-04-21T13:02:38.331Z,25.00
2023-04-21T13:03:42.876Z,25.00
2023-04-21T13:04:45.495Z,25.10
2023-04-21T13:05:47.990Z,25.00
2023-04-21T13:06:51.667Z,24.70
2023-04-21T13:07:55.346Z,24.60
2023-04-21T13:09:00.754Z,24.40
2023-04-21T13:10:05.022Z,24.50
2023-04-21T13:11:08.882Z,24.50
2023-04-21T13:12:12.058Z,24.50
2023-04-21T13:13:15.614Z,24.40
2023-04-21T13:14:18.782Z,24.10
2023-04-21T13:15:21.546Z,23.80
2023-04-21T13:16:24.010Z,23.80
2023-04-21T13:17:27.875Z,23.80
2023-04-21T13:18:30.102Z,23.90
2023-04-21T13:19:32.495Z,23.80
2023-04-21T13:20:34.813Z,24.00
2023-04-21T13:21:36.942Z,24.20
2023-04-21T13:22:39.046Z,24.20
2023-04-21T13:23:41.478Z,23.90
2023-04-21T13:24:43.654Z,23.50
2023-04-21T13:25:46.451Z,23.40
2023-04-21T13:26:48.726Z,23.80
2023-04-21T13:27:53.262Z,24.50
2023-04-21T13:28:55.613Z,24.30
2023-04-21T13:29:57.845Z,24.10
2023-04-21T13:31:00.109Z,24.00
2023-04-21T13:32:02.601Z,24.00
2023-04-21T13:33:06.177Z,24.00
2023-04-21T13:34:08.456Z,23.80
2023-04-21T13:35:10.903Z,23.70
2023-04-21T13:36:13.279Z,23.90
2023-04-21T13:37:17.022Z,23.90
2023-04-21T13:38:20.746Z,24.10
2023-04-21T13:39:22.955Z,24.20
2023-04-21T13:40:25.187Z,24.40
2023-04-21T13:41:30.635Z,24.50
2023-04-21T13:42:33.804Z,24.50
2023-04-21T13:43:36.299Z,24.90
2023-04-21T13:44:38.369Z,25.10
2023-04-21T13:45:41.386Z,25.00
2023-04-21T13:46:43.572Z,24.70
2023-04-21T13:47:46.560Z,24.30
2023-04-21T13:48:51.755Z,24.50
2023-04-21T13:49:54.638Z,24.50
2023-04-21T13:50:56.879Z,24.40
2023-04-21T13:52:00.945Z,24.50
2023-04-21T13:53:03.203Z,24.50
2023-04-21T13:54:07.648Z,24.20
2023-04-21T13:55:11.407Z,24.00